• Join FlightAware (Why Join?)
  • Login
  • US Flag 
05:54PM EDT


 

Airport Tracker/Info


-or-


 

Live Flight TrackerFlight Track Log ✈ JA-857A ✈ 05-May-2012 ✈ RJCM / MMB - RJCC / CTS

Flight Track Log - Related Links

Times and Time Zones

All times are in EDT time to prevent confusion due to time zone crossing. See the JA-857A flight status page for this flight to view local times or setup timezone preferences in your user account.

Time Position Orientation Groundspeed Altitude Reporting Facility
EDT Latitude Longitude Course Direction KTS MPH feet Rate Location/Type
06:20AM 43.8646 144.1268 239° Southwest  Level Estimated
06:21AM 43.8346 144.0569 239° Southwest  Level Estimated
06:22AM 43.8046 143.9871 239° Southwest  Level Estimated
06:23AM 43.7745 143.9174 239° Southwest  Level Estimated
06:24AM 43.7443 143.8478 239° Southwest  Level Estimated
06:25AM 43.7142 143.7782 239° Southwest  Level Estimated
06:26AM 43.6839 143.7087 239° Southwest  Level Estimated
06:27AM 43.6537 143.6393 239° Southwest  Level Estimated
06:28AM 43.6234 143.5699 239° Southwest  Level Estimated
06:29AM 43.5930 143.5006 239° Southwest  Level Estimated
06:30AM 43.5627 143.4314 239° Southwest  Level Estimated
06:31AM 43.5322 143.3622 239° Southwest  Level Estimated
06:32AM 43.5018 143.2931 239° Southwest  Level Estimated
06:33AM 43.4712 143.2241 239° Southwest  Level Estimated
06:34AM 43.4407 143.1552 239° Southwest  Level Estimated
06:35AM 43.4101 143.0863 239° Southwest  Level Estimated
06:36AM 43.3795 143.0175 238° Southwest  Level Estimated
06:37AM 43.3488 142.9488 238° Southwest  Level Estimated
06:38AM 43.3181 142.8801 238° Southwest  Level Estimated
06:39AM 43.2873 142.8115 238° Southwest  Level Estimated
06:40AM 43.2565 142.7430 238° Southwest  Level Estimated
06:41AM 43.2257 142.6745 238° Southwest  Level Estimated
06:42AM 43.1948 142.6062 238° Southwest  Level Estimated
06:43AM 43.1639 142.5378 238° Southwest  Level Estimated
06:44AM 43.1329 142.4696 238° Southwest  Level Estimated
06:45AM 43.1019 142.4014 238° Southwest  Level Estimated
06:46AM 43.0709 142.3333 238° Southwest  Level Estimated
06:47AM 43.0398 142.2653 238° Southwest  Level Estimated
06:48AM 43.0087 142.1973 238° Southwest  Level Estimated
06:49AM 42.9775 142.1294 238° Southwest  Level Estimated
06:50AM 42.9463 142.0616 238° Southwest  Level Estimated
06:51AM 42.9151 141.9938 238° Southwest  Level Estimated
06:52AM 42.8838 141.9261 238° Southwest  Level Estimated
06:53AM 42.8525 141.8585 238° Southwest  Level Estimated
06:54AM 42.8211 141.7909 238° Southwest  Level Estimated
06:55AM 42.7897 141.7234 238° Southwest  Level Estimated
06:56AM 42.7583 141.6560 58° Northeast  Level Estimated
06:57AM 42.7897 141.7234 238° Southwest  Level Estimated
06:58AM 42.7583 141.6560 58° Northeast  Level Estimated
06:59AM 42.7897 141.7234 58° Northeast  Level Estimated